Time,TemperatureF,DewpointF,PressureIn,WindDirection,WindDirectionDegrees,WindSpeedMPH,WindSpeedGustMPH,Humidity,HourlyPrecipIn,Conditions,Clouds,dailyrainin,SoftwareType,DateUTC
2013-07-22 00:04:00,78.3,74.4,29.83,SSE,157,1.7,-999.0,88,-99.99,,,0.00,Acu-Link.com,2013-07-22 05:04:00,
2013-07-22 00:19:00,78.3,74.4,29.84,SSE,157,2.2,-999.0,88,-99.99,,,0.00,Acu-Link.com,2013-07-22 05:19:00,
2013-07-22 00:34:00,78.1,74.2,29.84,ESE,112,3.2,-999.0,88,-99.99,,,0.00,Acu-Link.com,2013-07-22 05:34:00,
2013-07-22 00:49:00,77.7,73.9,29.84,ESE,112,2.7,-999.0,88,-99.99,,,0.00,Acu-Link.com,2013-07-22 05:49:00,
2013-07-22 01:05:00,77.5,73.7,29.84,NE,45,2.2,-999.0,88,-99.99,,,0.00,Acu-Link.com,2013-07-22 06:05:00,
2013-07-22 01:20:00,77.4,73.6,29.84,SW,225,4.2,-999.0,88,-99.99,,,0.00,Acu-Link.com,2013-07-22 06:20:00,
2013-07-22 01:35:00,77.2,73.7,29.83,SSW,202,5.3,-999.0,89,-99.99,,,0.00,Acu-Link.com,2013-07-22 06:35:00,
2013-07-22 01:50:00,77.0,73.8,29.83,SSE,157,4.7,-999.0,90,-99.99,,,0.00,Acu-Link.com,2013-07-22 06:50:00,
2013-07-22 02:05:00,76.8,73.6,29.84,East,90,2.2,-999.0,90,-99.99,,,0.00,Acu-Link.com,2013-07-22 07:05:00,
2013-07-22 02:21:00,76.6,73.4,29.83,SE,135,4.2,-999.0,90,-99.99,,,0.00,Acu-Link.com,2013-07-22 07:21:00,
2013-07-22 02:36:00,76.6,73.4,29.82,SSE,157,2.7,-999.0,90,-99.99,,,0.00,Acu-Link.com,2013-07-22 07:36:00,
2013-07-22 02:51:00,76.6,73.4,29.82,ESE,112,1.7,-999.0,90,-99.99,,,0.00,Acu-Link.com,2013-07-22 07:51:00,
2013-07-22 03:08:00,76.5,73.3,29.82,East,90,1.7,-999.0,90,-99.99,,,0.00,Acu-Link.com,2013-07-22 08:08:00,
2013-07-22 03:23:00,76.5,73.3,29.83,ESE,112,5.8,-999.0,90,-99.99,,,0.00,Acu-Link.com,2013-07-22 08:23:00,
2013-07-22 03:38:00,76.5,73.3,29.82,South,180,0.0,-999.0,90,-99.99,,,0.00,Acu-Link.com,2013-07-22 08:38:00,
2013-07-22 03:54:00,76.5,73.7,29.82,West,270,2.7,-999.0,91,-99.99,,,0.00,Acu-Link.com,2013-07-22 08:54:00,
2013-07-22 04:09:00,76.6,73.8,29.82,NE,45,4.7,-999.0,91,-99.99,,,0.00,Acu-Link.com,2013-07-22 09:09:00,
2013-07-22 04:24:00,76.6,73.8,29.82,ESE,112,0.0,-999.0,91,-99.99,,,0.00,Acu-Link.com,2013-07-22 09:24:00,
2013-07-22 04:39:00,76.6,73.8,29.82,ESE,112,1.1,-999.0,91,-99.99,,,0.00,Acu-Link.com,2013-07-22 09:39:00,
2013-07-22 04:54:00,76.8,74.0,29.83,NE,45,2.7,-999.0,91,-99.99,,,0.00,Acu-Link.com,2013-07-22 09:54:00,
2013-07-22 05:10:00,76.8,74.0,29.83,WSW,247,3.7,-999.0,91,-99.99,,,0.00,Acu-Link.com,2013-07-22 10:10:00,
2013-07-22 05:25:00,76.8,73.6,29.83,South,180,4.7,-999.0,90,-99.99,,,0.00,Acu-Link.com,2013-07-22 10:25:00,
2013-07-22 05:40:00,77.0,73.5,29.83,SSE,157,2.2,-999.0,89,-99.99,,,0.00,Acu-Link.com,2013-07-22 10:40:00,
2013-07-22 05:55:00,76.5,73.3,29.84,SSE,157,1.7,-999.0,90,-99.99,,,0.00,Acu-Link.com,2013-07-22 10:55:00,
2013-07-22 06:10:00,76.3,73.5,29.84,ESE,112,2.7,-999.0,91,-99.99,,,0.00,Acu-Link.com,2013-07-22 11:10:00,
2013-07-22 06:26:00,75.9,73.4,29.85,South,180,1.7,-999.0,92,-99.99,,,0.00,Acu-Link.com,2013-07-22 11:26:00,
2013-07-22 06:41:00,75.4,73.2,29.84,SSW,202,1.7,-999.0,93,-99.99,,,0.00,Acu-Link.com,2013-07-22 11:41:00,
2013-07-22 06:56:00,75.2,73.3,29.85,SSE,157,0.0,-999.0,94,-99.99,,,0.00,Acu-Link.com,2013-07-22 11:56:00,
2013-07-22 07:11:00,75.0,73.2,29.85,ESE,112,1.7,-999.0,94,-99.99,,,0.00,Acu-Link.com,2013-07-22 12:11:00,
2013-07-22 07:26:00,75.4,73.5,29.85,ESE,112,2.7,-999.0,94,-99.99,,,0.00,Acu-Link.com,2013-07-22 12:26:00,
2013-07-22 07:42:00,76.5,74.3,29.85,South,180,2.7,-999.0,93,-99.99,,,0.00,Acu-Link.com,2013-07-22 12:42:00,
2013-07-22 07:57:00,77.4,74.6,29.85,SSW,202,4.2,-999.0,91,-99.99,,,0.00,Acu-Link.com,2013-07-22 12:57:00,
2013-07-22 08:12:00,79.2,74.6,29.85,SSE,157,6.3,-999.0,86,-99.99,,,0.00,Acu-Link.com,2013-07-22 13:12:00,
2013-07-22 08:27:00,81.5,75.5,29.86,West,270,5.3,-999.0,82,-99.99,,,0.00,Acu-Link.com,2013-07-22 13:27:00,
2013-07-22 08:43:00,83.5,75.5,29.86,NE,45,2.7,-999.0,77,-99.99,,,0.00,Acu-Link.com,2013-07-22 13:43:00,
2013-07-22 08:58:00,81.9,74.0,29.86,ESE,112,9.9,-999.0,77,-99.99,,,0.00,Acu-Link.com,2013-07-22 13:58:00,
2013-07-22 09:13:00,82.2,74.3,29.87,South,180,4.2,-999.0,77,-99.99,,,0.00,Acu-Link.com,2013-07-22 14:13:00,
2013-07-22 09:29:00,81.9,74.0,29.87,South,180,5.3,-999.0,77,-99.99,,,0.00,Acu-Link.com,2013-07-22 14:29:00,
2013-07-22 09:44:00,85.8,74.9,29.87,SE,135,4.2,-999.0,70,-99.99,,,0.00,Acu-Link.com,2013-07-22 14:44:00,
2013-07-22 09:59:00,87.1,74.3,29.87,East,90,5.8,-999.0,66,-99.99,,,0.00,Acu-Link.com,2013-07-22 14:59:00,
2013-07-22 10:14:00,86.5,72.8,29.87,WSW,247,4.2,-999.0,64,-99.99,,,0.00,Acu-Link.com,2013-07-22 15:14:00,
2013-07-22 10:29:00,89.8,73.5,29.86,SSE,157,8.3,-999.0,59,-99.99,,,0.00,Acu-Link.com,2013-07-22 15:29:00,
2013-07-22 10:44:00,87.3,72.7,29.87,West,270,5.3,-999.0,62,-99.99,,,0.00,Acu-Link.com,2013-07-22 15:44:00,
2013-07-22 10:59:00,87.3,73.1,29.87,WNW,292,6.3,-999.0,63,-99.99,,,0.00,Acu-Link.com,2013-07-22 15:59:00,
2013-07-22 11:15:00,85.8,71.7,29.87,East,90,7.8,-999.0,63,-99.99,,,0.00,Acu-Link.com,2013-07-22 16:15:00,
2013-07-22 11:30:00,86.5,72.4,29.87,SW,225,3.7,-999.0,63,-99.99,,,0.00,Acu-Link.com,2013-07-22 16:30:00,
2013-07-22 11:45:00,88.7,72.0,29.87,SSE,157,4.2,-999.0,58,-99.99,,,0.00,Acu-Link.com,2013-07-22 16:45:00,
2013-07-22 12:00:00,89.6,71.8,29.86,ESE,112,6.8,-999.0,56,-99.99,,,0.00,Acu-Link.com,2013-07-22 17:00:00,
2013-07-22 12:16:00,91.9,72.8,29.86,South,180,3.2,-999.0,54,-99.99,,,0.00,Acu-Link.com,2013-07-22 17:16:00,
2013-07-22 12:31:00,92.3,73.2,29.85,SSE,157,2.7,-999.0,54,-99.99,,,0.00,Acu-Link.com,2013-07-22 17:31:00,
2013-07-22 12:46:00,92.3,73.2,29.85,East,90,5.8,-999.0,54,-99.99,,,0.00,Acu-Link.com,2013-07-22 17:46:00,
2013-07-22 13:17:00,93.2,72.9,29.85,SE,135,7.8,-999.0,52,-99.99,,,0.00,Acu-Link.com,2013-07-22 18:17:00,
2013-07-22 13:32:00,92.7,71.9,29.84,West,270,3.7,-999.0,51,-99.99,,,0.00,Acu-Link.com,2013-07-22 18:32:00,
2013-07-22 13:47:00,92.5,72.8,29.84,ESE,112,3.7,-999.0,53,-99.99,,,0.00,Acu-Link.com,2013-07-22 18:47:00,
2013-07-22 14:02:00,94.1,74.3,29.84,East,90,2.7,-999.0,53,-99.99,,,0.00,Acu-Link.com,2013-07-22 19:02:00,
2013-07-22 14:18:00,93.4,72.5,29.83,West,270,4.7,-999.0,51,-99.99,,,0.00,Acu-Link.com,2013-07-22 19:18:00,
2013-07-22 14:33:00,94.3,72.2,29.83,North,0,3.7,-999.0,49,-99.99,,,0.00,Acu-Link.com,2013-07-22 19:33:00,
2013-07-22 15:04:00,97.2,72.3,29.81,South,180,3.2,-999.0,45,-99.99,,,0.00,Acu-Link.com,2013-07-22 20:04:00,
2013-07-22 15:19:00,95.2,71.7,29.81,East,90,4.2,-999.0,47,-99.99,,,0.00,Acu-Link.com,2013-07-22 20:19:00,
2013-07-22 15:34:00,94.1,72.0,29.81,South,180,7.8,-999.0,49,-99.99,,,0.00,Acu-Link.com,2013-07-22 20:34:00,
2013-07-22 15:49:00,95.7,72.2,29.80,South,180,4.2,-999.0,47,-99.99,,,0.00,Acu-Link.com,2013-07-22 20:49:00,
2013-07-22 16:04:00,94.3,70.3,29.80,SSE,157,3.2,-999.0,46,-99.99,,,0.00,Acu-Link.com,2013-07-22 21:04:00,
2013-07-22 16:20:00,94.6,71.8,29.79,ESE,112,3.2,-999.0,48,-99.99,,,0.00,Acu-Link.com,2013-07-22 21:20:00,
2013-07-22 16:35:00,96.3,71.4,29.79,WSW,247,5.8,-999.0,45,-99.99,,,0.00,Acu-Link.com,2013-07-22 21:35:00,
2013-07-22 16:50:00,95.5,71.4,29.79,SE,135,4.7,-999.0,46,-99.99,,,0.00,Acu-Link.com,2013-07-22 21:50:00,
2013-07-22 17:05:00,95.5,71.4,29.78,NW,315,3.7,-999.0,46,-99.99,,,0.00,Acu-Link.com,2013-07-22 22:05:00,
2013-07-22 17:21:00,95.7,71.6,29.78,ESE,112,2.7,-999.0,46,-99.99,,,0.00,Acu-Link.com,2013-07-22 22:21:00,
2013-07-22 17:36:00,95.2,70.5,29.77,ESE,112,3.7,-999.0,45,-99.99,,,0.00,Acu-Link.com,2013-07-22 22:36:00,
2013-07-22 17:51:00,95.4,70.6,29.77,WNW,292,3.7,-999.0,45,-99.99,,,0.00,Acu-Link.com,2013-07-22 22:51:00,
2013-07-22 18:06:00,97.3,70.3,29.76,WSW,247,3.2,-999.0,42,-99.99,,,0.00,Acu-Link.com,2013-07-22 23:06:00,
2013-07-22 18:21:00,96.4,69.5,29.77,ESE,112,6.3,-999.0,42,-99.99,,,0.00,Acu-Link.com,2013-07-22 23:21:00,
2013-07-22 18:36:00,96.8,69.9,29.77,North,0,4.2,-999.0,42,-99.99,,,0.00,Acu-Link.com,2013-07-22 23:36:00,
2013-07-22 18:52:00,95.7,68.9,29.77,ESE,112,2.7,-999.0,42,-99.99,,,0.00,Acu-Link.com,2013-07-22 23:52:00,
2013-07-22 19:07:00,94.6,68.6,29.76,ESE,112,4.2,-999.0,43,-99.99,,,0.00,Acu-Link.com,2013-07-23 00:07:00,
2013-07-22 19:22:00,94.1,68.8,29.77,SSE,157,2.2,-999.0,44,-99.99,,,0.00,Acu-Link.com,2013-07-23 00:22:00,
2013-07-22 19:38:00,93.6,69.0,29.77,SSE,157,3.7,-999.0,45,-99.99,,,0.00,Acu-Link.com,2013-07-23 00:38:00,
2013-07-22 19:53:00,91.9,68.1,29.77,ESE,112,3.2,-999.0,46,-99.99,,,0.00,Acu-Link.com,2013-07-23 00:53:00,
2013-07-22 20:08:00,90.5,68.7,29.77,ESE,112,3.7,-999.0,49,-99.99,,,0.00,Acu-Link.com,2013-07-23 01:08:00,
2013-07-22 20:24:00,89.1,69.7,29.77,ESE,112,2.7,-999.0,53,-99.99,,,0.00,Acu-Link.com,2013-07-23 01:24:00,
2013-07-22 20:39:00,88.3,69.5,29.78,ESE,112,2.2,-999.0,54,-99.99,,,0.00,Acu-Link.com,2013-07-23 01:39:00,
2013-07-22 20:54:00,87.3,70.2,29.79,SSE,157,2.7,-999.0,57,-99.99,,,0.00,Acu-Link.com,2013-07-23 01:54:00,
2013-07-22 21:09:00,86.5,70.4,29.79,SE,135,3.2,-999.0,59,-99.99,,,0.00,Acu-Link.com,2013-07-23 02:09:00,
2013-07-22 21:25:00,86.2,70.2,29.80,SE,135,6.3,-999.0,59,-99.99,,,0.00,Acu-Link.com,2013-07-23 02:25:00,
2013-07-22 21:40:00,86.0,69.0,29.81,South,180,3.2,-999.0,57,-99.99,,,0.00,Acu-Link.com,2013-07-23 02:40:00,
2013-07-22 21:55:00,85.5,68.5,29.82,SE,135,4.7,-999.0,57,-99.99,,,0.00,Acu-Link.com,2013-07-23 02:55:00,
2013-07-22 22:10:00,84.9,68.4,29.82,SW,225,3.7,-999.0,58,-99.99,,,0.00,Acu-Link.com,2013-07-23 03:10:00,
2013-07-22 22:26:00,84.2,69.3,29.83,SE,135,2.7,-999.0,61,-99.99,,,0.00,Acu-Link.com,2013-07-23 03:26:00,
2013-07-22 22:41:00,83.8,69.8,29.83,ESE,112,4.2,-999.0,63,-99.99,,,0.00,Acu-Link.com,2013-07-23 03:41:00,
2013-07-22 22:56:00,83.3,70.3,29.84,WNW,292,5.8,-999.0,65,-99.99,,,0.00,Acu-Link.com,2013-07-23 03:56:00,
2013-07-22 23:11:00,82.9,70.8,29.84,SSW,202,5.8,-999.0,67,-99.99,,,0.00,Acu-Link.com,2013-07-23 04:11:00,
2013-07-22 23:27:00,82.6,71.4,29.84,East,90,3.2,-999.0,69,-99.99,,,0.00,Acu-Link.com,2013-07-23 04:27:00,
2013-07-22 23:42:00,82.0,71.6,29.84,ESE,112,2.7,-999.0,71,-99.99,,,0.00,Acu-Link.com,2013-07-23 04:42:00,
2013-07-22 23:57:00,81.5,72.0,29.84,SSW,202,4.2,-999.0,73,-99.99,,,0.00,Acu-Link.com,2013-07-23 04:57:00,